Time;durP1;ratioP1;P1;durP2;ratioP2;P2;SDS_P1;SDS_P2;PMS_P1;PMS_P2;Temp;Humidity;BMP_temperature;BMP_pressure;BME280_temperature;BME280_humidity;BME280_pressure;Samples;Min_cycle;Max_cycle;Signal;HPM_P1;HPM_P2
2022/08/02 00:01:42;;;;;;;;;;;13.40;98.10;;;;;;5053589;28;20011;-68
2022/08/02 00:04:09;;;;;;;;;;;13.50;99.10;;;;;;5053503;28;19947;-68
2022/08/02 00:06:36;;;;;;;;;;;13.50;98.50;;;;;;5053520;28;19915;-68
2022/08/02 00:09:04;;;;;;;;;;;13.60;98.70;;;;;;5053577;28;19920;-68
2022/08/02 00:11:31;;;;;;;;;;;13.60;97.90;;;;;;5053518;28;19916;-68
2022/08/02 00:13:57;;;;;;;;;;;13.60;98.20;;;;;;5053401;28;19913;-68
2022/08/02 00:16:24;;;;;;;;;;;13.70;97.80;;;;;;5052082;28;20279;-68
2022/08/02 00:18:51;;;;;;;;;;;13.80;97.60;;;;;;5053474;28;19909;-68
2022/08/02 00:21:18;;;;;;;;;;;13.80;97.70;;;;;;5053182;28;19921;-68
2022/08/02 00:23:44;;;;;;;;;;;13.80;97.40;;;;;;5053359;28;19931;-68
2022/08/02 00:26:11;;;;;;;;;;;13.80;97.50;;;;;;5053086;28;19914;-68
2022/08/02 00:28:38;;;;;;;;;;;13.80;97.90;;;;;;5053297;28;19909;-68
2022/08/02 00:31:04;;;;;;;;;;;13.80;97.60;;;;;;5053236;28;19951;-68
2022/08/02 00:33:31;;;;;;;;;;;13.90;97.70;;;;;;5053319;28;19917;-68
2022/08/02 00:35:58;;;;;;;;;;;14.00;97.30;;;;;;5053157;28;19913;-68
2022/08/02 00:38:24;;;;;;;;;;;13.90;97.60;;;;;;5053013;28;19909;-68
2022/08/02 00:40:52;;;;;;;;;;;13.90;97.00;;;;;;5053356;28;19919;-67
2022/08/02 00:43:18;;;;;;;;;;;14.00;97.00;;;;;;5053280;28;19915;-68
2022/08/02 00:45:45;;;;;;;;;;;14.10;97.30;;;;;;5053074;28;19909;-68
2022/08/02 00:48:12;;;;;;;;;;;14.20;97.00;;;;;;5052972;28;19915;-68
2022/08/02 00:50:39;;;;;;;;;;;14.20;96.80;;;;;;5053242;28;19916;-68
2022/08/02 00:53:09;;;;;;;;;;;14.20;97.00;;;;;;5052966;28;20322;-68
2022/08/02 00:55:38;;;;;;;;;;;14.20;97.00;;;;;;5056091;28;19991;-68
2022/08/02 00:58:05;;;;;;;;;;;14.20;97.20;;;;;;5056852;28;20003;-68
2022/08/02 01:00:31;;;;;;;;;;;14.30;97.10;;;;;;5055694;28;19908;-68
2022/08/02 01:02:58;;;;;;;;;;;14.30;97.30;;;;;;5057012;28;19915;-68
2022/08/02 01:05:25;;;;;;;;;;;14.20;97.70;;;;;;5057166;28;20532;-68
2022/08/02 01:07:51;;;;;;;;;;;14.30;97.40;;;;;;5056966;28;20380;-67
2022/08/02 01:10:18;;;;;;;;;;;14.30;96.70;;;;;;5056726;28;20003;-67
2022/08/02 01:12:46;;;;;;;;;;;14.50;97.40;;;;;;5056680;28;19916;-66
2022/08/02 01:15:13;;;;;;;;;;;14.70;96.60;;;;;;5056706;28;19919;-67
2022/08/02 01:17:44;;;;;;;;;;;14.90;96.80;;;;;;5056769;28;19963;-67
2022/08/02 01:20:28;;;;;;;;;;;15.20;96.80;;;;;;5056304;28;20039;-67
2022/08/02 01:23:05;;;;;;;;;;;15.40;95.20;;;;;;5056771;28;19908;-67
2022/08/02 01:25:50;;;;;;;;;;;15.60;95.00;;;;;;5056809;28;19909;-67
2022/08/02 01:28:27;;;;;;;;;;;15.50;94.90;;;;;;5056065;28;19948;-68
2022/08/02 01:31:13;;;;;;;;;;;15.60;94.70;;;;;;5056682;28;19947;-67
2022/08/02 01:33:58;;;;;;;;;;;15.60;95.10;;;;;;5035276;28;19916;-67
2022/08/02 01:36:26;;;;;;;;;;;15.60;94.90;;;;;;5056055;28;19909;-68
2022/08/02 01:38:53;;;;;;;;;;;15.70;94.80;;;;;;5056337;28;19962;-67
2022/08/02 01:41:25;;;;;;;;;;;15.50;95.10;;;;;;5056201;28;19916;-67
2022/08/02 01:43:53;;;;;;;;;;;15.50;95.00;;;;;;5056105;28;19999;-67
2022/08/02 01:46:20;;;;;;;;;;;15.50;95.10;;;;;;5056019;28;20000;-67
2022/08/02 01:48:48;;;;;;;;;;;15.40;95.10;;;;;;5056157;28;20434;-68
2022/08/02 01:51:16;;;;;;;;;;;15.30;95.10;;;;;;5056025;28;19909;-69
2022/08/02 01:53:44;;;;;;;;;;;15.30;94.90;;;;;;5055977;28;19943;-68
2022/08/02 01:56:12;;;;;;;;;;;15.20;95.10;;;;;;5055955;28;19909;-68
2022/08/02 01:58:39;;;;;;;;;;;15.20;95.20;;;;;;5055813;28;19988;-68
2022/08/02 02:01:07;;;;;;;;;;;15.20;95.40;;;;;;5055963;28;19909;-68
2022/08/02 02:03:35;;;;;;;;;;;15.10;95.70;;;;;;5055923;28;19909;-68
2022/08/02 02:06:02;;;;;;;;;;;15.30;95.50;;;;;;5054826;28;20315;-68
2022/08/02 02:08:40;;;;;;;;;;;15.30;95.20;;;;;;5055835;28;19913;-68
2022/08/02 02:11:07;;;;;;;;;;;15.20;95.20;;;;;;5055820;28;20267;-68
2022/08/02 02:13:36;;;;;;;;;;;15.20;95.00;;;;;;5055623;28;19916;-68
2022/08/02 02:16:04;;;;;;;;;;;15.30;95.80;;;;;;5055487;28;19913;-68
2022/08/02 02:18:32;;;;;;;;;;;15.30;95.60;;;;;;5054647;28;19970;-68
2022/08/02 02:20:59;;;;;;;;;;;15.30;95.60;;;;;;5055423;28;20426;-68
2022/08/02 02:23:25;;;;;;;;;;;15.40;95.10;;;;;;5055544;28;19987;-68
2022/08/02 02:25:52;;;;;;;;;;;15.40;95.00;;;;;;5055764;28;19909;-68
2022/08/02 02:28:29;;;;;;;;;;;15.50;94.80;;;;;;5055173;28;19909;-68
2022/08/02 02:31:02;;;;;;;;;;;15.40;95.20;;;;;;5055660;28;19909;-68
2022/08/02 02:33:30;;;;;;;;;;;15.50;94.50;;;;;;5055366;28;20364;-68
2022/08/02 02:35:57;;;;;;;;;;;15.50;93.10;;;;;;5055293;28;20320;-68
2022/08/02 02:38:26;;;;;;;;;;;15.50;93.50;;;;;;5054966;28;19909;-68
2022/08/02 02:40:55;;;;;;;;;;;15.50;94.20;;;;;;5055265;28;19915;-68
2022/08/02 02:43:24;;;;;;;;;;;15.50;93.80;;;;;;5055004;28;19909;-68
2022/08/02 02:45:51;;;;;;;;;;;15.60;93.80;;;;;;5055049;28;19909;-68
2022/08/02 02:48:18;;;;;;;;;;;15.60;93.70;;;;;;5054785;28;19909;-68
2022/08/02 02:50:45;;;;;;;;;;;15.70;93.30;;;;;;5055128;28;19909;-69
2022/08/02 02:53:12;;;;;;;;;;;15.70;92.80;;;;;;5054792;28;19923;-68
2022/08/02 02:55:41;;;;;;;;;;;15.70;92.50;;;;;;5054949;28;20349;-68
2022/08/02 02:58:07;;;;;;;;;;;15.60;93.20;;;;;;5054527;28;19920;-68
2022/08/02 03:03:19;;;;;;;;;;;15.70;92.70;;;;;;5054742;28;19978;-68
2022/08/02 03:05:46;;;;;;;;;;;15.80;93.00;;;;;;5054869;28;19909;-69
2022/08/02 03:08:13;;;;;;;;;;;15.80;92.30;;;;;;5054293;28;19955;-69
2022/08/02 03:10:40;;;;;;;;;;;15.90;92.70;;;;;;5054611;28;19915;-69
2022/08/02 03:13:07;;;;;;;;;;;15.90;92.80;;;;;;5054409;28;20377;-69
2022/08/02 03:15:34;;;;;;;;;;;16.10;92.30;;;;;;5054592;28;19909;-69
2022/08/02 03:18:00;;;;;;;;;;;16.00;92.20;;;;;;5054461;28;19972;-69
2022/08/02 03:20:27;;;;;;;;;;;16.10;91.90;;;;;;5054124;28;19962;-69
2022/08/02 03:22:54;;;;;;;;;;;16.00;93.20;;;;;;5054410;28;19916;-69
2022/08/02 03:25:20;;;;;;;;;;;16.10;92.10;;;;;;5054217;28;19909;-69
2022/08/02 03:27:47;;;;;;;;;;;16.10;91.30;;;;;;5053993;28;20287;-68
2022/08/02 03:30:14;;;;;;;;;;;16.00;91.20;;;;;;5054003;28;19909;-69
2022/08/02 03:32:42;;;;;;;;;;;15.90;91.60;;;;;;5054158;28;20283;-69
2022/08/02 03:35:10;;;;;;;;;;;16.00;90.50;;;;;;5053955;28;20007;-69
2022/08/02 03:37:37;;;;;;;;;;;16.00;90.70;;;;;;5054052;28;19916;-69
2022/08/02 03:40:08;;;;;;;;;;;16.00;91.80;;;;;;5053790;28;20360;-69
2022/08/02 03:42:35;;;;;;;;;;;16.10;90.80;;;;;;5053816;28;19947;-68
2022/08/02 03:45:06;;;;;;;;;;;16.10;91.20;;;;;;5053949;28;19916;-69
2022/08/02 03:47:33;;;;;;;;;;;16.20;91.10;;;;;;5053906;28;20274;-68
2022/08/02 03:50:00;;;;;;;;;;;16.30;92.20;;;;;;5053879;28;19909;-69
2022/08/02 03:52:27;;;;;;;;;;;16.30;90.80;;;;;;5053696;28;19917;-69
2022/08/02 03:54:54;;;;;;;;;;;16.30;90.90;;;;;;5053799;28;19909;-69
2022/08/02 03:57:21;;;;;;;;;;;16.40;90.70;;;;;;5053686;28;19909;-69
2022/08/02 03:59:47;;;;;;;;;;;16.30;90.20;;;;;;5053743;28;19909;-68
2022/08/02 04:02:14;;;;;;;;;;;16.30;90.50;;;;;;5053454;28;19909;-69
2022/08/02 04:04:41;;;;;;;;;;;16.20;89.90;;;;;;5053725;28;20008;-69
2022/08/02 04:07:08;;;;;;;;;;;16.40;88.30;;;;;;5053767;28;19968;-68
2022/08/02 04:09:34;;;;;;;;;;;16.40;90.20;;;;;;5053721;28;19909;-68
2022/08/02 04:12:01;;;;;;;;;;;16.40;89.90;;;;;;5053162;28;19975;-69
2022/08/02 04:14:28;;;;;;;;;;;16.50;89.10;;;;;;5053412;28;19920;-69
2022/08/02 04:17:14;;;;;;;;;;;16.50;88.50;;;;;;5053417;28;19951;-68
2022/08/02 04:19:49;;;;;;;;;;;16.60;88.20;;;;;;5053503;28;20352;-68
2022/08/02 04:22:18;;;;;;;;;;;16.60;88.60;;;;;;5053147;28;19921;-68
2022/08/02 04:24:48;;;;;;;;;;;16.60;89.40;;;;;;5053395;28;19933;-69
2022/08/02 04:27:16;;;;;;;;;;;16.60;89.70;;;;;;5053216;28;20378;-68
2022/08/02 04:29:43;;;;;;;;;;;16.60;90.10;;;;;;5052881;28;19909;-68
2022/08/02 04:32:10;;;;;;;;;;;16.70;87.50;;;;;;5052942;28;19917;-68
2022/08/02 04:34:37;;;;;;;;;;;16.60;88.00;;;;;;5053165;28;20374;-68
2022/08/02 04:37:04;;;;;;;;;;;16.60;90.30;;;;;;5053242;28;19915;-69
2022/08/02 04:39:30;;;;;;;;;;;16.60;88.70;;;;;;5053241;28;20004;-68
2022/08/02 04:41:57;;;;;;;;;;;16.60;87.00;;;;;;5053332;28;19916;-68
2022/08/02 04:44:24;;;;;;;;;;;16.50;86.80;;;;;;5052874;28;19908;-69
2022/08/02 04:46:51;;;;;;;;;;;16.50;87.80;;;;;;5052989;28;19915;-68
2022/08/02 04:49:18;;;;;;;;;;;16.50;87.10;;;;;;5053138;28;20282;-68
2022/08/02 04:51:45;;;;;;;;;;;16.40;85.60;;;;;;5053063;28;19909;-69
2022/08/02 04:54:11;;;;;;;;;;;16.40;86.50;;;;;;5052916;28;20367;-68
2022/08/02 04:56:38;;;;;;;;;;;16.50;91.90;;;;;;5053051;28;20271;-68
2022/08/02 04:59:06;;;;;;;;;;;16.60;92.70;;;;;;5052762;28;19928;-68
2022/08/02 05:01:34;;;;;;;;;;;16.60;93.10;;;;;;5052956;28;20390;-68
2022/08/02 05:04:01;;;;;;;;;;;16.50;93.90;;;;;;5053094;28;19908;-68
2022/08/02 05:06:28;;;;;;;;;;;16.40;94.50;;;;;;5051841;28;19995;-68
2022/08/02 05:08:54;;;;;;;;;;;16.30;95.80;;;;;;5052954;28;19909;-69
2022/08/02 05:11:21;;;;;;;;;;;16.30;96.10;;;;;;5052949;28;20279;-68
2022/08/02 05:13:48;;;;;;;;;;;16.30;96.10;;;;;;5052639;28;19916;-68
2022/08/02 05:16:15;;;;;;;;;;;16.30;96.20;;;;;;5052511;28;19944;-68
2022/08/02 05:18:41;;;;;;;;;;;16.20;96.60;;;;;;5052701;28;19956;-68
2022/08/02 05:21:08;;;;;;;;;;;16.20;96.60;;;;;;5052436;28;19928;-69
2022/08/02 05:23:35;;;;;;;;;;;16.10;97.30;;;;;;5052822;28;19913;-68
2022/08/02 05:26:02;;;;;;;;;;;16.10;97.80;;;;;;5052572;28;19909;-68
2022/08/02 05:28:29;;;;;;;;;;;16.20;98.10;;;;;;5052428;28;19916;-68
2022/08/02 05:30:55;;;;;;;;;;;16.10;98.80;;;;;;5052738;28;19908;-68
2022/08/02 05:33:22;;;;;;;;;;;16.10;98.90;;;;;;5052632;28;19917;-68
2022/08/02 05:35:49;;;;;;;;;;;16.00;99.30;;;;;;5052718;28;19963;-68
2022/08/02 05:38:15;;;;;;;;;;;16.00;99.90;;;;;;5052608;28;19916;-68
2022/08/02 05:40:42;;;;;;;;;;;15.90;99.90;;;;;;5052746;28;19916;-68
2022/08/02 05:43:13;;;;;;;;;;;15.90;99.90;;;;;;5056082;28;20001;-68
2022/08/02 05:45:40;;;;;;;;;;;15.70;99.90;;;;;;5056270;28;19909;-68
2022/08/02 05:48:07;;;;;;;;;;;15.70;99.90;;;;;;5055943;28;20278;-68
2022/08/02 05:50:37;;;;;;;;;;;15.70;99.90;;;;;;5056098;28;19909;-68
2022/08/02 05:53:10;;;;;;;;;;;15.80;99.90;;;;;;5055940;28;19916;-68
2022/08/02 05:55:42;;;;;;;;;;;15.80;99.90;;;;;;5056047;28;19939;-68
2022/08/02 05:58:27;;;;;;;;;;;15.80;99.90;;;;;;5055763;28;20019;-68
2022/08/02 06:00:55;;;;;;;;;;;15.80;99.90;;;;;;5056088;28;19909;-68
2022/08/02 06:03:25;;;;;;;;;;;15.70;99.90;;;;;;5056058;28;19916;-68
2022/08/02 06:06:00;;;;;;;;;;;15.70;99.90;;;;;;5055882;28;19909;-68
2022/08/02 06:08:31;;;;;;;;;;;15.70;99.90;;;;;;5055881;28;19908;-68
2022/08/02 06:10:59;;;;;;;;;;;15.80;99.90;;;;;;5055893;28;19916;-68
2022/08/02 06:13:26;;;;;;;;;;;15.70;99.90;;;;;;5055667;28;19948;-68
2022/08/02 06:15:58;;;;;;;;;;;15.70;99.90;;;;;;5055771;28;20356;-69
2022/08/02 06:18:28;;;;;;;;;;;15.70;99.90;;;;;;5055492;28;19909;-68
2022/08/02 06:21:00;;;;;;;;;;;15.60;99.90;;;;;;5055460;28;20449;-68
2022/08/02 06:23:28;;;;;;;;;;;15.60;99.90;;;;;;5055564;28;19909;-68
2022/08/02 06:25:56;;;;;;;;;;;15.60;99.90;;;;;;5055438;28;19931;-68
2022/08/02 06:28:23;;;;;;;;;;;15.60;99.90;;;;;;5054933;28;19909;-68
2022/08/02 06:30:50;;;;;;;;;;;15.50;99.90;;;;;;5055309;28;20278;-68
2022/08/02 06:33:17;;;;;;;;;;;15.50;99.90;;;;;;5055385;28;20375;-68
2022/08/02 06:35:46;;;;;;;;;;;15.50;99.90;;;;;;5055613;28;20274;-68
2022/08/02 06:38:21;;;;;;;;;;;15.50;99.90;;;;;;5054930;28;19979;-68
2022/08/02 06:40:55;;;;;;;;;;;15.40;99.90;;;;;;5055272;28;19916;-68
2022/08/02 06:43:21;;;;;;;;;;;15.40;99.90;;;;;;5055343;28;19931;-68
2022/08/02 06:45:48;;;;;;;;;;;15.40;99.90;;;;;;5055099;28;20378;-68
2022/08/02 06:48:15;;;;;;;;;;;15.30;99.90;;;;;;5054890;28;19931;-68
2022/08/02 06:50:43;;;;;;;;;;;15.20;99.90;;;;;;5054559;28;20316;-68
2022/08/02 06:53:10;;;;;;;;;;;15.20;99.90;;;;;;5052219;28;20402;-68
2022/08/02 06:55:37;;;;;;;;;;;15.10;99.90;;;;;;5052716;28;19916;-68
2022/08/02 06:58:04;;;;;;;;;;;15.10;99.90;;;;;;5052477;28;19909;-68
2022/08/02 07:00:30;;;;;;;;;;;15.10;99.90;;;;;;5052749;28;19955;-68
2022/08/02 07:02:57;;;;;;;;;;;15.20;99.90;;;;;;5052656;28;20367;-68
2022/08/02 07:05:24;;;;;;;;;;;15.10;99.90;;;;;;5052799;28;20279;-68
2022/08/02 07:07:51;;;;;;;;;;;15.10;99.90;;;;;;5052649;28;19909;-68
2022/08/02 07:10:18;;;;;;;;;;;15.10;99.90;;;;;;5052401;28;19912;-68
2022/08/02 07:12:44;;;;;;;;;;;15.00;99.90;;;;;;5052448;28;20385;-68
2022/08/02 07:15:11;;;;;;;;;;;14.90;99.90;;;;;;5052558;28;19913;-68
2022/08/02 07:17:38;;;;;;;;;;;14.90;99.90;;;;;;5052176;28;19915;-68
2022/08/02 07:20:05;;;;;;;;;;;14.90;99.90;;;;;;5052053;28;19908;-69
2022/08/02 07:22:32;;;;;;;;;;;14.80;99.90;;;;;;5051066;28;19916;-68
2022/08/02 07:24:59;;;;;;;;;;;14.80;99.90;;;;;;5052116;28;19909;-69
2022/08/02 07:27:26;;;;;;;;;;;14.70;99.90;;;;;;5052077;28;19962;-68
2022/08/02 07:29:54;;;;;;;;;;;14.70;99.90;;;;;;5052582;28;19913;-68
2022/08/02 07:32:21;;;;;;;;;;;14.60;99.90;;;;;;5051453;28;20364;-68
2022/08/02 07:34:48;;;;;;;;;;;14.60;99.90;;;;;;5051755;28;19917;-68
2022/08/02 07:37:15;;;;;;;;;;;14.50;99.90;;;;;;5051774;28;19966;-68
2022/08/02 07:39:42;;;;;;;;;;;14.50;99.90;;;;;;5052164;28;19912;-68
2022/08/02 07:42:08;;;;;;;;;;;14.40;99.90;;;;;;5051711;28;19962;-68
2022/08/02 07:44:35;;;;;;;;;;;14.40;99.90;;;;;;5051613;28;19909;-68
2022/08/02 07:47:02;;;;;;;;;;;14.40;99.90;;;;;;5051956;28;19908;-68
2022/08/02 07:49:29;;;;;;;;;;;14.40;99.90;;;;;;5051656;28;20046;-68
2022/08/02 07:51:56;;;;;;;;;;;14.30;99.90;;;;;;5051714;28;20340;-68
2022/08/02 07:54:23;;;;;;;;;;;14.40;99.90;;;;;;5051431;28;19919;-68
2022/08/02 07:56:52;;;;;;;;;;;14.30;99.90;;;;;;5051142;28;20071;-68
2022/08/02 07:59:18;;;;;;;;;;;14.30;99.90;;;;;;5051465;28;19959;-69
2022/08/02 08:01:45;;;;;;;;;;;14.30;99.90;;;;;;5051523;28;19952;-69
2022/08/02 08:04:12;;;;;;;;;;;14.20;99.90;;;;;;5050601;28;19912;-68
2022/08/02 08:06:39;;;;;;;;;;;14.20;99.90;;;;;;5051663;28;19916;-68
2022/08/02 08:09:05;;;;;;;;;;;14.10;99.90;;;;;;5051348;28;19954;-68
2022/08/02 08:11:32;;;;;;;;;;;14.10;99.90;;;;;;5045490;28;20360;-69
2022/08/02 08:13:59;;;;;;;;;;;14.00;99.90;;;;;;5030720;28;19917;-69
2022/08/02 08:16:27;;;;;;;;;;;14.00;99.90;;;;;;5030918;28;19909;-68
2022/08/02 08:18:55;;;;;;;;;;;14.00;99.90;;;;;;5031250;28;19924;-69
2022/08/02 08:21:22;;;;;;;;;;;14.00;99.90;;;;;;5030907;28;19951;-68
2022/08/02 08:23:49;;;;;;;;;;;13.90;99.90;;;;;;5031515;28;19917;-68
2022/08/02 08:26:19;;;;;;;;;;;13.80;99.90;;;;;;5029738;28;20223;-68
2022/08/02 08:28:46;;;;;;;;;;;13.80;99.90;;;;;;5030487;28;19913;-69
2022/08/02 08:31:13;;;;;;;;;;;13.70;99.90;;;;;;5031238;28;20008;-68
2022/08/02 08:33:40;;;;;;;;;;;13.70;99.90;;;;;;5031420;28;19921;-68
2022/08/02 08:36:07;;;;;;;;;;;13.70;99.90;;;;;;5030913;28;20319;-68
2022/08/02 08:38:34;;;;;;;;;;;13.60;99.90;;;;;;5030357;28;20419;-69
2022/08/02 08:41:01;;;;;;;;;;;13.50;99.90;;;;;;5031207;28;19997;-68
2022/08/02 08:43:27;;;;;;;;;;;13.50;99.90;;;;;;5030932;28;19909;-68
2022/08/02 08:45:54;;;;;;;;;;;13.50;99.90;;;;;;5031020;28;19909;-68
2022/08/02 08:48:21;;;;;;;;;;;13.50;99.90;;;;;;5030958;28;19984;-69
2022/08/02 08:51:01;;;;;;;;;;;13.50;99.90;;;;;;5030888;28;20380;-68
2022/08/02 08:53:29;;;;;;;;;;;13.50;99.90;;;;;;5030953;28;19917;-68
2022/08/02 08:55:57;;;;;;;;;;;13.50;99.90;;;;;;5030925;28;19914;-69
2022/08/02 08:58:24;;;;;;;;;;;13.60;99.90;;;;;;5030839;28;19909;-68
2022/08/02 09:00:50;;;;;;;;;;;13.60;99.90;;;;;;5031004;28;20241;-68
2022/08/02 09:03:17;;;;;;;;;;;13.60;99.90;;;;;;5032205;28;20098;-68
2022/08/02 09:05:45;;;;;;;;;;;13.60;99.90;;;;;;5032873;28;19910;-69
2022/08/02 09:08:13;;;;;;;;;;;13.60;99.90;;;;;;5032610;28;19917;-69
2022/08/02 09:10:39;;;;;;;;;;;13.60;99.90;;;;;;5032641;28;20379;-67
2022/08/02 09:13:08;;;;;;;;;;;13.60;99.90;;;;;;5032683;28;19918;-68
2022/08/02 09:15:35;;;;;;;;;;;13.60;99.90;;;;;;5032747;28;19915;-69
2022/08/02 09:18:04;;;;;;;;;;;13.60;99.90;;;;;;5036497;28;19917;-68
2022/08/02 09:20:35;;;;;;;;;;;13.60;99.90;;;;;;5036602;28;19913;-68
2022/08/02 09:23:06;;;;;;;;;;;13.60;99.90;;;;;;5036574;28;19918;-68
2022/08/02 09:25:33;;;;;;;;;;;13.50;99.90;;;;;;5036498;28;19913;-68
2022/08/02 09:28:01;;;;;;;;;;;13.50;99.90;;;;;;5036421;28;20000;-68
2022/08/02 09:30:28;;;;;;;;;;;13.50;99.90;;;;;;5036646;28;19963;-68
2022/08/02 09:32:55;;;;;;;;;;;13.40;99.90;;;;;;5036371;28;20367;-68
2022/08/02 09:35:31;;;;;;;;;;;13.40;99.90;;;;;;5036368;28;19909;-68
2022/08/02 09:38:11;;;;;;;;;;;13.40;99.90;;;;;;5036388;28;20000;-68
2022/08/02 09:40:38;;;;;;;;;;;13.40;99.90;;;;;;5036267;28;19909;-69
2022/08/02 09:43:05;;;;;;;;;;;13.40;99.90;;;;;;5036323;28;19909;-68
2022/08/02 09:45:36;;;;;;;;;;;13.40;99.90;;;;;;5036236;28;20565;-69
2022/08/02 09:48:09;;;;;;;;;;;13.40;99.90;;;;;;5035885;28;19913;-68
2022/08/02 09:50:37;;;;;;;;;;;13.30;99.90;;;;;;5036279;28;19909;-68
2022/08/02 09:53:04;;;;;;;;;;;13.30;99.90;;;;;;5036008;28;19972;-68
2022/08/02 09:55:31;;;;;;;;;;;13.30;99.90;;;;;;5035997;28;19943;-68
2022/08/02 09:57:57;;;;;;;;;;;13.30;99.90;;;;;;5036006;28;19909;-68
2022/08/02 10:00:24;;;;;;;;;;;13.20;99.90;;;;;;5035853;28;19937;-68
2022/08/02 10:03:07;;;;;;;;;;;13.20;99.90;;;;;;5035982;28;19909;-68
2022/08/02 10:05:47;;;;;;;;;;;13.20;99.90;;;;;;5035810;28;19913;-68
2022/08/02 10:08:14;;;;;;;;;;;13.20;99.90;;;;;;5035531;28;20275;-68
2022/08/02 10:10:41;;;;;;;;;;;13.20;99.90;;;;;;5036018;28;19941;-68
2022/08/02 10:13:09;;;;;;;;;;;13.20;99.90;;;;;;5034834;28;20319;-68
2022/08/02 10:15:36;;;;;;;;;;;13.20;99.90;;;;;;5036383;28;19913;-69
2022/08/02 10:18:07;;;;;;;;;;;13.20;99.90;;;;;;5035006;28;19913;-68
2022/08/02 10:20:41;;;;;;;;;;;13.20;99.90;;;;;;5035415;28;20004;-69
2022/08/02 10:23:10;;;;;;;;;;;13.20;99.90;;;;;;5035611;28;19920;-68
2022/08/02 10:25:37;;;;;;;;;;;13.30;99.90;;;;;;5035307;28;19955;-68
2022/08/02 10:28:06;;;;;;;;;;;13.30;99.90;;;;;;5033031;28;19920;-68
2022/08/02 10:30:38;;;;;;;;;;;13.30;99.90;;;;;;5033298;28;19913;-68
2022/08/02 10:33:06;;;;;;;;;;;13.30;99.90;;;;;;5032641;28;20304;-69
2022/08/02 10:35:35;;;;;;;;;;;13.30;99.90;;;;;;5033247;28;19917;-69
2022/08/02 10:38:06;;;;;;;;;;;13.30;99.90;;;;;;5032938;28;19948;-69
2022/08/02 10:40:43;;;;;;;;;;;13.30;99.90;;;;;;5032878;28;19920;-68
2022/08/02 10:43:10;;;;;;;;;;;13.20;99.90;;;;;;5033320;28;19948;-68
2022/08/02 10:45:36;;;;;;;;;;;13.20;99.90;;;;;;5031765;28;19913;-69
2022/08/02 10:48:07;;;;;;;;;;;13.20;99.90;;;;;;5032257;28;19975;-69
2022/08/02 10:50:45;;;;;;;;;;;13.20;99.90;;;;;;5032909;28;20008;-68
2022/08/02 10:53:26;;;;;;;;;;;13.10;99.90;;;;;;5032896;28;20368;-68
2022/08/02 10:55:54;;;;;;;;;;;13.20;99.90;;;;;;5032426;28;19916;-68
2022/08/02 10:58:26;;;;;;;;;;;13.20;99.90;;;;;;5032560;28;19909;-68
2022/08/02 11:00:53;;;;;;;;;;;13.20;99.90;;;;;;5031364;28;19913;-68
2022/08/02 11:03:39;;;;;;;;;;;13.20;99.90;;;;;;5032255;28;20422;-68
2022/08/02 11:06:06;;;;;;;;;;;13.20;99.90;;;;;;5032469;28;20287;-68
2022/08/02 11:08:32;;;;;;;;;;;13.20;99.90;;;;;;5032417;28;19975;-69
2022/08/02 11:11:08;;;;;;;;;;;13.20;99.90;;;;;;5032393;28;20253;-68
2022/08/02 11:13:53;;;;;;;;;;;13.20;99.90;;;;;;5032468;28;20013;-68
2022/08/02 11:16:20;;;;;;;;;;;13.10;99.90;;;;;;5032436;28;19933;-69
2022/08/02 11:18:49;;;;;;;;;;;13.20;99.90;;;;;;5031944;28;19913;-68
2022/08/02 11:21:25;;;;;;;;;;;13.20;99.90;;;;;;5031698;28;19932;-68
2022/08/02 11:23:52;;;;;;;;;;;13.10;99.90;;;;;;5032374;28;19913;-69
2022/08/02 11:26:31;;;;;;;;;;;13.10;99.90;;;;;;5030656;28;20323;-69
2022/08/02 11:28:59;;;;;;;;;;;13.10;99.90;;;;;;5032283;28;19909;-68
2022/08/02 11:31:26;;;;;;;;;;;13.10;99.90;;;;;;5032104;28;20329;-69
2022/08/02 11:33:53;;;;;;;;;;;13.20;99.90;;;;;;5031350;28;19927;-68
2022/08/02 11:36:20;;;;;;;;;;;13.10;99.90;;;;;;5031830;28;19963;-68
2022/08/02 11:38:47;;;;;;;;;;;13.20;99.90;;;;;;5031078;28;19920;-68
2022/08/02 11:41:20;;;;;;;;;;;13.20;99.90;;;;;;5032068;28;19917;-69
2022/08/02 11:43:53;;;;;;;;;;;13.20;99.90;;;;;;5032030;28;19913;-68
2022/08/02 11:46:19;;;;;;;;;;;13.20;99.90;;;;;;5031574;28;19959;-68
2022/08/02 11:48:46;;;;;;;;;;;13.20;99.90;;;;;;5031255;28;19920;-68
2022/08/02 11:51:14;;;;;;;;;;;13.20;99.90;;;;;;5031801;28;19924;-69
2022/08/02 11:53:51;;;;;;;;;;;13.20;99.90;;;;;;5030447;28;19928;-68
2022/08/02 11:56:25;;;;;;;;;;;13.30;99.90;;;;;;5031482;28;20352;-68
2022/08/02 11:59:10;;;;;;;;;;;13.20;99.90;;;;;;5031692;28;19944;-68
2022/08/02 12:01:38;;;;;;;;;;;13.30;99.90;;;;;;5031653;28;19916;-68
2022/08/02 12:04:06;;;;;;;;;;;13.30;99.90;;;;;;5030911;28;19913;-68
2022/08/02 12:06:33;;;;;;;;;;;13.30;99.90;;;;;;5031728;28;20016;-68
2022/08/02 12:09:11;;;;;;;;;;;13.40;99.90;;;;;;5031504;28;19909;-68
2022/08/02 12:11:38;;;;;;;;;;;13.40;99.90;;;;;;5031434;28;19959;-68
2022/08/02 12:14:05;;;;;;;;;;;13.50;99.90;;;;;;5030800;28;19921;-68
2022/08/02 12:19:25;;;;;;;;;;;13.40;99.90;;;;;;4999962;28;20368;-68
2022/08/02 12:22:11;;;;;;;;;;;13.50;99.90;;;;;;5031118;28;19921;-68
2022/08/02 12:24:38;;;;;;;;;;;13.40;99.90;;;;;;5031228;28;20466;-68
2022/08/02 12:27:05;;;;;;;;;;;13.50;99.90;;;;;;5031057;28;19920;-69
2022/08/02 12:29:41;;;;;;;;;;;13.40;99.90;;;;;;5031292;28;19913;-69
2022/08/02 12:32:08;;;;;;;;;;;13.40;99.90;;;;;;5030592;28;20045;-69
2022/08/02 12:34:35;;;;;;;;;;;13.40;99.90;;;;;;5031307;28;20011;-69
2022/08/02 12:37:05;;;;;;;;;;;13.40;99.90;;;;;;5031076;28;20280;-69
2022/08/02 12:39:37;;;;;;;;;;;13.40;99.90;;;;;;5030839;28;19909;-69
2022/08/02 12:42:05;;;;;;;;;;;13.40;99.90;;;;;;5031090;28;19963;-68
2022/08/02 12:44:32;;;;;;;;;;;13.40;99.90;;;;;;5031141;28;19909;-69
2022/08/02 12:47:03;;;;;;;;;;;13.40;99.90;;;;;;5030507;28;19909;-69
2022/08/02 12:49:30;;;;;;;;;;;13.40;99.90;;;;;;5031063;28;19920;-69
2022/08/02 12:51:57;;;;;;;;;;;13.40;99.90;;;;;;5034396;28;19913;-69
2022/08/02 12:54:25;;;;;;;;;;;13.40;99.90;;;;;;5034996;28;19921;-69
2022/08/02 12:56:52;;;;;;;;;;;13.40;99.90;;;;;;5035033;28;19909;-69
2022/08/02 12:59:38;;;;;;;;;;;13.40;99.90;;;;;;5035352;28;19910;-68
2022/08/02 13:02:06;;;;;;;;;;;13.40;99.90;;;;;;5034078;28;19932;-68
2022/08/02 13:04:33;;;;;;;;;;;13.40;99.90;;;;;;5036628;28;19909;-68
2022/08/02 13:07:00;;;;;;;;;;;13.40;99.90;;;;;;5037179;28;19968;-67
2022/08/02 13:09:27;;;;;;;;;;;13.40;99.90;;;;;;5036864;28;20284;-67
2022/08/02 13:11:53;;;;;;;;;;;13.40;99.90;;;;;;5036826;28;19939;-67
2022/08/02 13:14:20;;;;;;;;;;;13.40;99.90;;;;;;5036660;28;19914;-67
2022/08/02 13:16:48;;;;;;;;;;;13.40;99.90;;;;;;5037063;28;19992;-68
2022/08/02 13:19:14;;;;;;;;;;;13.40;99.90;;;;;;5035767;28;19909;-68
2022/08/02 13:21:41;;;;;;;;;;;13.40;99.90;;;;;;5036709;28;20284;-68
2022/08/02 13:24:10;;;;;;;;;;;13.30;99.90;;;;;;5036507;28;19913;-68
2022/08/02 13:26:36;;;;;;;;;;;13.30;99.90;;;;;;5036689;28;19910;-69
2022/08/02 13:29:03;;;;;;;;;;;13.20;99.90;;;;;;5036722;28;20335;-69
2022/08/02 13:31:32;;;;;;;;;;;13.20;99.90;;;;;;5036618;28;19913;-69
2022/08/02 13:33:59;;;;;;;;;;;13.10;99.90;;;;;;5036534;28;19924;-68
2022/08/02 13:36:26;;;;;;;;;;;13.10;99.90;;;;;;5036523;28;20364;-69
2022/08/02 13:38:52;;;;;;;;;;;13.00;99.90;;;;;;5036523;28;19909;-69
2022/08/02 13:41:19;;;;;;;;;;;13.00;99.90;;;;;;5036412;28;19916;-69
2022/08/02 13:43:46;;;;;;;;;;;13.00;99.90;;;;;;5036480;28;19916;-69
2022/08/02 13:46:12;;;;;;;;;;;13.00;99.90;;;;;;5036157;28;20287;-69
2022/08/02 13:48:39;;;;;;;;;;;12.90;99.90;;;;;;5036219;28;19917;-69
2022/08/02 13:51:10;;;;;;;;;;;12.90;99.90;;;;;;5035001;28;19916;-69
2022/08/02 13:53:38;;;;;;;;;;;12.80;99.90;;;;;;5036276;28;19924;-69
2022/08/02 13:56:05;;;;;;;;;;;12.80;99.90;;;;;;5035946;28;19909;-69
2022/08/02 13:58:31;;;;;;;;;;;12.80;99.90;;;;;;5036105;28;19916;-69
2022/08/02 14:00:58;;;;;;;;;;;12.80;99.90;;;;;;5036075;28;19909;-68
2022/08/02 14:03:25;;;;;;;;;;;12.80;99.90;;;;;;5035105;28;19932;-69
2022/08/02 14:05:51;;;;;;;;;;;12.80;99.90;;;;;;5036147;28;19913;-69
2022/08/02 14:08:19;;;;;;;;;;;12.80;99.90;;;;;;5035812;28;19916;-69
2022/08/02 14:10:47;;;;;;;;;;;12.80;99.90;;;;;;5035794;28;19963;-69
2022/08/02 14:13:13;;;;;;;;;;;12.80;99.90;;;;;;5035862;28;19991;-68
2022/08/02 14:15:41;;;;;;;;;;;12.80;99.90;;;;;;5034637;28;19931;-69
2022/08/02 14:18:08;;;;;;;;;;;12.80;99.90;;;;;;5035620;28;19920;-69
2022/08/02 14:20:35;;;;;;;;;;;12.80;99.90;;;;;;5035758;28;20367;-69
2022/08/02 14:23:01;;;;;;;;;;;12.80;99.90;;;;;;5035645;28;20008;-69
2022/08/02 14:25:28;;;;;;;;;;;12.80;99.90;;;;;;5035551;28;19909;-69
2022/08/02 14:27:55;;;;;;;;;;;12.90;99.90;;;;;;5035580;28;19917;-69
2022/08/02 14:30:22;;;;;;;;;;;12.80;99.90;;;;;;5035319;28;19924;-69